HBZYC LSXU-LSZS

Flight info

Callsign HBZYC
Flight time 0h 26m
Altitude 9000
Route DCT LSZS
Aircraft PC12/L-VGDW/C

Departure

Time 2026-05-05 16:28
Airport Untervaz Heliport (LSXU)

Arrival

Time 2026-05-05 16:54
Airport Engadin Airport (LSZS)
Time Latitude Longitude Altitude Speed Heading
2026-05-05 16:23 46.91261 9.55081 1794 ft 0 kts 13°
2026-05-05 16:28 46.91260 9.55081 1797 ft 1 kts 16°
2026-05-05 16:28 46.91267 9.55084 1822 ft 2 kts 258°
2026-05-05 16:28 46.91103 9.55028 1900 ft 53 kts 209°
2026-05-05 16:29 46.90669 9.54923 2154 ft 70 kts 178°
2026-05-05 16:29 46.90195 9.55101 2511 ft 69 kts 165°
2026-05-05 16:29 46.89768 9.55365 2942 ft 66 kts 157°
2026-05-05 16:29 46.89361 9.55687 3330 ft 66 kts 153°
2026-05-05 16:30 46.88983 9.56007 3713 ft 60 kts 153°
2026-05-05 16:30 46.88613 9.56352 4051 ft 63 kts 150°
2026-05-05 16:30 46.88281 9.56722 4385 ft 57 kts 153°
2026-05-05 16:30 46.87998 9.57094 4736 ft 55 kts 148°
2026-05-05 16:31 46.87714 9.57464 5113 ft 50 kts 153°
2026-05-05 16:31 46.87471 9.57739 5360 ft 37 kts 162°
2026-05-05 16:31 46.87256 9.57748 5238 ft 44 kts 217°
2026-05-05 16:31 46.86952 9.57554 5454 ft 55 kts 195°
2026-05-05 16:32 46.86590 9.57402 5874 ft 46 kts 200°
2026-05-05 16:32 46.86272 9.57356 5965 ft 55 kts 158°
2026-05-05 16:32 46.86000 9.57629 5844 ft 19 kts 154°
2026-05-05 16:32 46.86066 9.57468 5535 ft 62 kts 283°
2026-05-05 16:33 46.85919 9.57040 5621 ft 50 kts 212°
2026-05-05 16:33 46.85628 9.56852 5770 ft 36 kts 203°
2026-05-05 16:33 46.85320 9.56730 5945 ft 59 kts 192°
2026-05-05 16:33 46.84859 9.56687 6179 ft 73 kts 185°
2026-05-05 16:34 46.84290 9.56702 6271 ft 90 kts 180°
2026-05-05 16:34 46.83678 9.56715 6454 ft 87 kts 184°
2026-05-05 16:34 46.83077 9.56648 6592 ft 88 kts 185°
2026-05-05 16:34 46.82518 9.56576 6924 ft 76 kts 187°
2026-05-05 16:35 46.82006 9.56474 7132 ft 73 kts 195°
2026-05-05 16:35 46.81477 9.56452 7196 ft 81 kts 175°
2026-05-05 16:35 46.80917 9.56527 7194 ft 73 kts 178°
2026-05-05 16:35 46.80452 9.56623 7348 ft 66 kts 181°
2026-05-05 16:36 46.79985 9.56677 7507 ft 70 kts 179°
2026-05-05 16:36 46.79505 9.56799 7704 ft 70 kts 180°
2026-05-05 16:36 46.79019 9.56926 7917 ft 72 kts 173°
2026-05-05 16:36 46.78534 9.57014 8145 ft 71 kts 184°
2026-05-05 16:37 46.78043 9.57053 8381 ft 66 kts 180°
2026-05-05 16:37 46.77563 9.57099 8542 ft 70 kts 180°
2026-05-05 16:37 46.77021 9.57119 8531 ft 88 kts 185°
2026-05-05 16:37 46.76391 9.57142 8530 ft 90 kts 180°
2026-05-05 16:38 46.75777 9.57099 8522 ft 94 kts 191°
2026-05-05 16:38 46.75103 9.56997 8383 ft 100 kts 182°
2026-05-05 16:38 46.74417 9.57196 8292 ft 102 kts 160°
2026-05-05 16:38 46.73764 9.57571 8289 ft 99 kts 164°
2026-05-05 16:39 46.73089 9.57760 8286 ft 96 kts 170°
2026-05-05 16:39 46.72431 9.57944 8344 ft 95 kts 168°
2026-05-05 16:39 46.71793 9.58048 8343 ft 87 kts 180°
2026-05-05 16:39 46.71246 9.58234 8551 ft 83 kts 168°
2026-05-05 16:40 46.70615 9.58375 8500 ft 97 kts 170°
2026-05-05 16:40 46.69977 9.58621 8610 ft 97 kts 163°
2026-05-05 16:40 46.69281 9.58862 8561 ft 105 kts 168°
2026-05-05 16:40 46.68554 9.59068 8554 ft 106 kts 169°
2026-05-05 16:41 46.67849 9.59256 8629 ft 98 kts 169°
2026-05-05 16:41 46.67171 9.59454 8617 ft 104 kts 168°
2026-05-05 16:41 46.66443 9.59721 8471 ft 111 kts 163°
2026-05-05 16:41 46.65760 9.60057 8531 ft 100 kts 166°
2026-05-05 16:42 46.65068 9.60289 8451 ft 102 kts 165°
2026-05-05 16:42 46.64372 9.60556 8356 ft 103 kts 158°
2026-05-05 16:42 46.63727 9.60869 8228 ft 98 kts 161°
2026-05-05 16:42 46.63111 9.61174 8327 ft 89 kts 164°
2026-05-05 16:43 46.62488 9.61472 8288 ft 93 kts 162°
2026-05-05 16:43 46.61929 9.61749 8534 ft 86 kts 164°
2026-05-05 16:43 46.61337 9.62103 8581 ft 90 kts 153°
2026-05-05 16:43 46.60930 9.62524 8982 ft 65 kts 161°
2026-05-05 16:44 46.60512 9.62816 9075 ft 74 kts 165°
2026-05-05 16:44 46.59990 9.63103 9069 ft 85 kts 167°
2026-05-05 16:44 46.59424 9.63386 9197 ft 86 kts 166°
2026-05-05 16:44 46.58858 9.63642 9326 ft 85 kts 170°
2026-05-05 16:45 46.58261 9.63834 9413 ft 89 kts 171°
2026-05-05 16:45 46.57697 9.63975 9480 ft 79 kts 182°
2026-05-05 16:45 46.57123 9.64035 9418 ft 88 kts 174°
2026-05-05 16:45 46.56520 9.64036 9391 ft 92 kts 184°
2026-05-05 16:46 46.55854 9.64128 9247 ft 98 kts 168°
2026-05-05 16:46 46.55233 9.64409 9244 ft 91 kts 165°
2026-05-05 16:46 46.54656 9.64695 9131 ft 81 kts 165°
2026-05-05 16:46 46.54178 9.64968 9428 ft 69 kts 159°
2026-05-05 16:47 46.53729 9.65268 9635 ft 76 kts 158°
2026-05-05 16:47 46.53237 9.65610 9774 ft 82 kts 158°
2026-05-05 16:47 46.52707 9.66015 9809 ft 91 kts 155°
2026-05-05 16:47 46.52145 9.66495 9834 ft 95 kts 151°
2026-05-05 16:48 46.51604 9.67022 9761 ft 92 kts 148°
2026-05-05 16:48 46.51107 9.67550 9908 ft 88 kts 149°
2026-05-05 16:48 46.50629 9.68064 9773 ft 81 kts 148°
2026-05-05 16:48 46.50194 9.68544 9928 ft 83 kts 151°
2026-05-05 16:49 46.49644 9.68932 9925 ft 91 kts 157°
2026-05-05 16:49 46.49086 9.69413 9891 ft 95 kts 148°
2026-05-05 16:49 46.48593 9.70093 9897 ft 101 kts 135°
2026-05-05 16:49 46.48223 9.71010 9724 ft 109 kts 121°
2026-05-05 16:50 46.47933 9.72018 9636 ft 111 kts 116°
2026-05-05 16:50 46.47702 9.73188 9331 ft 132 kts 106°
2026-05-05 16:50 46.47514 9.74525 8875 ft 137 kts 107°
2026-05-05 16:50 46.47222 9.75805 8508 ft 134 kts 115°
2026-05-05 16:51 46.46864 9.77029 8186 ft 127 kts 116°
2026-05-05 16:51 46.46767 9.78250 8067 ft 124 kts 86°
2026-05-05 16:51 46.47072 9.79413 7870 ft 123 kts 63°
2026-05-05 16:51 46.47497 9.80405 7831 ft 110 kts 59°
2026-05-05 16:52 46.47906 9.81323 7752 ft 110 kts 59°
2026-05-05 16:52 46.48338 9.82294 7567 ft 119 kts 57°
2026-05-05 16:52 46.48826 9.83300 7190 ft 125 kts 53°
2026-05-05 16:52 46.49356 9.84251 7065 ft 117 kts 50°
2026-05-05 16:53 46.49896 9.85090 6940 ft 111 kts 47°
2026-05-05 16:53 46.50408 9.85813 6769 ft 99 kts 47°
2026-05-05 16:53 46.50923 9.86485 6513 ft 100 kts 43°
2026-05-05 16:53 46.51460 9.87070 6263 ft 92 kts 41°
2026-05-05 16:54 46.51963 9.87539 6103 ft 80 kts 35°
2026-05-05 16:54 46.52411 9.87938 5917 ft 68 kts 31°
2026-05-05 16:54 46.52790 9.88241 5788 ft 56 kts 30°
2026-05-05 16:54 46.53116 9.88273 5663 ft 38 kts 301°
2026-05-05 16:55 46.53207 9.88122 5653 ft 12 kts 254°
2026-05-05 16:55 46.53210 9.88028 5630 ft 5 kts 232°
2026-05-05 16:55 46.53201 9.88006 5606 ft 2 kts 205°
2026-05-05 16:55 46.53195 9.88002 5601 ft 0 kts 176°
2026-05-05 16:56 46.52993 9.87948 5675 ft 55 kts 200°
2026-05-05 16:56 46.52608 9.87739 5788 ft 48 kts 137°
2026-05-05 16:57 46.52569 9.88063 5759 ft 47 kts 30°
2026-05-05 16:57 46.52861 9.88315 5723 ft 48 kts 348°
2026-05-05 16:57 46.53155 9.88252 5665 ft 38 kts 280°
2026-05-05 16:57 46.53211 9.88037 5630 ft 7 kts 210°
2026-05-05 16:58 46.53199 9.88002 5605 ft 2 kts 176°
2026-05-05 16:58 46.53196 9.88002 5601 ft 1 kts 171°
2026-05-05 16:58 46.53178 9.88107 5626 ft 46 kts 146°
2026-05-05 16:58 46.52853 9.88044 5684 ft 64 kts 217°
2026-05-05 16:59 46.52652 9.88151 5850 ft 48 kts 37°
2026-05-05 16:59 46.53030 9.88323 5709 ft 46 kts 271°
2026-05-05 16:59 46.52806 9.88196 5655 ft 69 kts 191°
2026-05-05 16:59 46.52395 9.88093 5827 ft 59 kts 281°
2026-05-05 17:00 46.52765 9.88192 5739 ft 65 kts 25°
2026-05-05 17:00 46.53172 9.88236 5668 ft 41 kts 286°
2026-05-05 17:00 46.53209 9.88023 5621 ft 7 kts 210°
2026-05-05 17:00 46.53198 9.88003 5605 ft 1 kts 180°
2026-05-05 17:01 46.53196 9.88002 5601 ft 0 kts 177°
2026-05-05 17:01 46.53183 9.88118 5635 ft 38 kts 163°
2026-05-05 17:01 46.52855 9.88187 5713 ft 58 kts 205°
2026-05-05 17:01 46.52399 9.88040 5925 ft 70 kts 203°
2026-05-05 17:02 46.52438 9.87947 5796 ft 53 kts 36°
2026-05-05 17:02 46.52815 9.88265 5724 ft 68 kts 12°
2026-05-05 17:02 46.53170 9.88197 5665 ft 37 kts 277°
2026-05-05 17:02 46.53205 9.88011 5609 ft 4 kts 198°
2026-05-05 17:03 46.53196 9.88002 5601 ft 0 kts 168°
2026-05-05 17:03 46.53187 9.88030 5629 ft 17 kts 134°
2026-05-05 17:03 46.53030 9.88201 5661 ft 49 kts 188°
2026-05-05 17:04 46.52798 9.88339 5854 ft 67 kts 12°
2026-05-05 17:04 46.53211 9.88187 5680 ft 50 kts 268°
2026-05-05 17:04 46.53203 9.88008 5612 ft 6 kts 187°
2026-05-05 17:04 46.53196 9.88002 5601 ft 0 kts 173°